Moline, Kansas
Current Conditions -  °F | °C
As of 1:55 PM on Thursday 18 Dec 2014 (Local Time) from KIDP Reporting Station
Overcast Overcast  
Wind Chill: 32°   Ceiling: 500
Heat Index: 36°   Visibility: 7mi
Dew Point: 34°   Wind: 5mph
Humidity: 93%   Direction: 320°NW
Pressure: 30.17"   Gusts: NA
Location:  37.36°N, 96.3°W
Report Text: KIDP 181955Z AUTO 32004KT 7SM BKN005 OVC009 02/01 A3017 RMK AO2
Loading
Personal Weather Stations






























Interactive Weather Map New forecast layout! Learn more

10-Day Weather Forecast

Advertisements
Track Severe Weather on mobile